Time;durP1;ratioP1;P1;durP2;ratioP2;P2;SDS_P1;SDS_P2;PMS_P1;PMS_P2;Temp;Humidity;BMP_temperature;BMP_pressure;BME280_temperature;BME280_humidity;BME280_pressure;Samples;Min_cycle;Max_cycle;Signal;HPM_P1;HPM_P2
2022/04/03 00:01:55;;;;;;;0.40;0.38;;;7.10;39.40;;;;;;6039924;23;20442;-78
2022/04/03 00:04:23;;;;;;;0.50;0.40;;;7.00;39.80;;;;;;6039209;23;20379;-79
2022/04/03 00:06:50;;;;;;;0.45;0.32;;;7.10;39.00;;;;;;6039958;23;20446;-82
2022/04/03 00:09:17;;;;;;;1.00;0.30;;;7.10;38.90;;;;;;6065273;23;20765;-79
2022/04/03 00:11:44;;;;;;;0.40;0.30;;;7.10;38.90;;;;;;6040378;23;20879;-78
2022/04/03 00:14:11;;;;;;;0.40;0.30;;;7.10;38.50;;;;;;6039496;23;20379;-80
2022/04/03 00:16:39;;;;;;;0.70;0.30;;;7.20;38.00;;;;;;6040197;23;20712;-79
2022/04/03 00:19:07;;;;;;;0.40;0.32;;;7.30;37.90;;;;;;6038012;23;20398;-77
2022/04/03 00:21:37;;;;;;;0.30;0.30;;;7.10;38.70;;;;;;6040124;23;20851;-78
2022/04/03 00:24:05;;;;;;;0.90;0.20;;;7.10;39.00;;;;;;6039073;23;20379;-77
2022/04/03 00:26:32;;;;;;;0.43;0.40;;;7.00;38.90;;;;;;6040723;23;20402;-81
2022/04/03 00:28:59;;;;;;;0.32;0.30;;;7.10;38.50;;;;;;6062556;23;20387;-81
2022/04/03 00:31:26;;;;;;;0.30;0.30;;;7.10;38.60;;;;;;6065933;23;20380;-77
2022/04/03 00:33:53;;;;;;;0.40;0.30;;;7.10;38.50;;;;;;6064156;23;20395;-79
2022/04/03 00:36:20;;;;;;;0.40;0.30;;;7.10;38.60;;;;;;6065050;23;20800;-77
2022/04/03 00:38:48;;;;;;;0.40;0.30;;;7.10;38.20;;;;;;6065191;23;20874;-80
2022/04/03 00:41:17;;;;;;;0.45;0.30;;;7.10;38.60;;;;;;6063403;23;20371;-78
2022/04/03 00:43:44;;;;;;;0.38;0.30;;;7.00;38.90;;;;;;6062632;23;20764;-77
2022/04/03 00:46:14;;;;;;;0.60;0.30;;;7.00;38.50;;;;;;6063990;23;20938;-77
2022/04/03 00:48:41;;;;;;;0.60;0.30;;;7.00;38.50;;;;;;6063282;23;20466;-78
2022/04/03 00:51:08;;;;;;;0.30;0.30;;;7.00;38.50;;;;;;6063246;23;20515;-81
2022/04/03 00:53:35;;;;;;;0.30;0.30;;;7.00;38.60;;;;;;6063782;23;20382;-79
2022/04/03 00:56:02;;;;;;;1.70;0.30;;;7.10;38.40;;;;;;6063912;23;20442;-81
2022/04/03 00:58:31;;;;;;;0.30;0.30;;;7.10;38.20;;;;;;6065589;23;20872;-78
2022/04/03 01:00:58;;;;;;;0.40;0.40;;;7.00;38.90;;;;;;6063201;23;20387;-80
2022/04/03 01:03:25;;;;;;;0.70;0.30;;;6.90;38.90;;;;;;6064493;23;20383;-77
2022/04/03 01:05:52;;;;;;;0.32;0.30;;;6.90;38.50;;;;;;6063215;23;20737;-78
2022/04/03 01:08:20;;;;;;;0.40;0.30;;;7.00;38.70;;;;;;6063412;23;20375;-79
2022/04/03 01:10:47;;;;;;;0.32;0.25;;;7.00;38.80;;;;;;6064362;23;20391;-81
2022/04/03 01:13:14;;;;;;;0.30;0.30;;;6.90;38.90;;;;;;6064399;23;20383;-79
2022/04/03 01:15:41;;;;;;;0.40;0.30;;;6.90;38.50;;;;;;6063542;23;20382;-79
2022/04/03 01:18:08;;;;;;;0.40;0.30;;;6.90;38.80;;;;;;6040336;23;20435;-77
2022/04/03 01:20:35;;;;;;;0.50;0.30;;;6.80;39.30;;;;;;6065185;23;20386;-81
2022/04/03 01:23:02;;;;;;;0.28;0.25;;;6.80;39.50;;;;;;6063830;23;20379;-81
2022/04/03 01:25:30;;;;;;;0.20;0.20;;;6.80;39.20;;;;;;6064787;23;20915;-81
2022/04/03 01:27:57;;;;;;;0.40;0.30;;;6.80;39.50;;;;;;6065555;23;20379;-79
2022/04/03 01:30:24;;;;;;;0.30;0.30;;;6.90;39.10;;;;;;6062884;23;20768;-81
2022/04/03 01:32:51;;;;;;;0.30;0.30;;;6.90;38.90;;;;;;6063040;23;20772;-79
2022/04/03 01:35:18;;;;;;;0.40;0.30;;;6.80;39.30;;;;;;6063559;23;20690;-81
2022/04/03 01:37:45;;;;;;;0.30;0.30;;;6.80;39.50;;;;;;6062219;23;20387;-81
2022/04/03 01:40:12;;;;;;;0.35;0.30;;;6.80;39.40;;;;;;6062216;23;20827;-80
2022/04/03 01:42:39;;;;;;;0.30;0.30;;;6.80;38.80;;;;;;6062771;23;20394;-79
2022/04/03 01:45:06;;;;;;;0.32;0.30;;;6.70;39.00;;;;;;6063891;23;20886;-77
2022/04/03 01:47:34;;;;;;;0.38;0.30;;;6.70;39.60;;;;;;6065802;23;20442;-79
2022/04/03 01:50:01;;;;;;;0.45;0.30;;;6.60;40.10;;;;;;6064502;23;20882;-78
2022/04/03 01:52:28;;;;;;;0.30;0.30;;;6.70;39.80;;;;;;6064846;23;20832;-81
2022/04/03 01:54:55;;;;;;;0.77;0.30;;;6.70;40.60;;;;;;6065673;23;20407;-81
2022/04/03 01:57:22;;;;;;;0.40;0.35;;;6.70;41.20;;;;;;6067177;23;20375;-81
2022/04/03 01:59:49;;;;;;;0.50;0.40;;;6.60;42.10;;;;;;6064123;23;20439;-78
2022/04/03 02:02:15;;;;;;;0.40;0.30;;;6.50;42.20;;;;;;6065160;23;20478;-79
2022/04/03 02:04:42;;;;;;;0.40;0.30;;;6.50;41.50;;;;;;6065146;23;20426;-80
2022/04/03 02:07:09;;;;;;;0.40;0.40;;;6.50;41.70;;;;;;6066297;23;20375;-77
2022/04/03 02:09:36;;;;;;;0.60;0.50;;;6.50;41.40;;;;;;6066657;23;20375;-79
2022/04/03 02:12:05;;;;;;;2.08;1.00;;;6.50;41.70;;;;;;6064759;23;20379;-81
2022/04/03 02:14:32;;;;;;;1.10;0.60;;;6.40;42.40;;;;;;6066439;23;20383;-81
2022/04/03 02:16:59;;;;;;;0.70;0.50;;;6.40;42.80;;;;;;6065869;23;20919;-80
2022/04/03 02:19:27;;;;;;;1.13;0.60;;;6.30;43.50;;;;;;6066121;23;20383;-77
2022/04/03 02:21:53;;;;;;;1.20;0.40;;;6.20;43.40;;;;;;6065580;23;20657;-79
2022/04/03 02:24:20;;;;;;;0.67;0.40;;;6.10;43.40;;;;;;6065851;23;20386;-80
2022/04/03 02:26:47;;;;;;;1.70;0.73;;;6.00;44.50;;;;;;6040948;23;20422;-78
2022/04/03 02:29:14;;;;;;;0.90;0.47;;;5.90;44.20;;;;;;6064103;23;20407;-79
2022/04/03 02:31:42;;;;;;;0.45;0.40;;;5.90;44.40;;;;;;6064386;23;20379;-77
2022/04/03 02:34:10;;;;;;;1.50;0.50;;;5.80;44.20;;;;;;6039975;23;20439;-81
2022/04/03 02:36:40;;;;;;;1.25;0.60;;;5.70;44.80;;;;;;6064836;23;20438;-77
2022/04/03 02:39:07;;;;;;;2.10;0.77;;;5.70;44.90;;;;;;6065131;23;20715;-81
2022/04/03 02:41:34;;;;;;;2.15;0.60;;;5.80;44.30;;;;;;6066131;23;20686;-78
2022/04/03 02:44:03;;;;;;;1.10;0.60;;;5.80;44.00;;;;;;6063900;23;20391;-81
2022/04/03 02:46:30;;;;;;;0.80;0.50;;;5.70;44.40;;;;;;6065440;23;20387;-77
2022/04/03 02:48:58;;;;;;;1.20;0.40;;;5.70;44.10;;;;;;6066821;23;20387;-80
2022/04/03 02:51:25;;;;;;;1.33;0.80;;;5.90;43.60;;;;;;6065409;23;20375;-79
2022/04/03 02:53:52;;;;;;;1.40;0.50;;;5.80;43.90;;;;;;6063866;23;20391;-79
2022/04/03 02:56:19;;;;;;;2.33;0.75;;;5.80;43.30;;;;;;6064296;23;20446;-80
2022/04/03 02:58:46;;;;;;;1.33;0.60;;;5.70;43.90;;;;;;6064098;23;20387;-77
2022/04/03 03:01:13;;;;;;;1.70;0.77;;;5.70;44.20;;;;;;6063074;23;20454;-77
2022/04/03 03:03:40;;;;;;;1.20;0.50;;;5.70;44.30;;;;;;6065297;23;20387;-81
2022/04/03 03:06:07;;;;;;;0.93;0.73;;;5.60;44.70;;;;;;6064648;23;20772;-81
2022/04/03 03:08:34;;;;;;;1.58;0.77;;;5.70;44.10;;;;;;6064889;23;20609;-78
2022/04/03 03:11:01;;;;;;;0.55;0.40;;;5.70;44.30;;;;;;6065100;23;20407;-79
2022/04/03 03:13:28;;;;;;;0.43;0.35;;;5.70;44.20;;;;;;6065140;23;20375;-77
2022/04/03 03:15:55;;;;;;;1.08;0.40;;;5.70;44.60;;;;;;6064551;23;20446;-81
2022/04/03 03:18:21;;;;;;;0.70;0.30;;;5.80;43.90;;;;;;6064021;23;20375;-77
2022/04/03 03:20:48;;;;;;;0.55;0.38;;;5.80;43.90;;;;;;6064735;23;20384;-79
2022/04/03 03:23:15;;;;;;;1.00;0.50;;;5.80;43.40;;;;;;6063877;23;20390;-79
2022/04/03 03:25:43;;;;;;;0.47;0.40;;;5.80;43.50;;;;;;6064133;23;20391;-78
2022/04/03 03:28:10;;;;;;;0.65;0.40;;;5.80;43.30;;;;;;6063175;23;20860;-81
2022/04/03 03:30:37;;;;;;;2.25;0.50;;;5.70;43.80;;;;;;6066596;23;20397;-79
2022/04/03 03:33:04;;;;;;;0.50;0.40;;;5.70;44.20;;;;;;6065977;23;20378;-81
2022/04/03 03:35:31;;;;;;;0.60;0.50;;;5.70;44.40;;;;;;6065583;23;20454;-78
2022/04/03 03:37:58;;;;;;;0.82;0.60;;;5.70;43.90;;;;;;6064667;23;20391;-80
2022/04/03 03:40:27;;;;;;;0.60;0.40;;;5.80;43.80;;;;;;6041029;23;20712;-78
2022/04/03 03:42:55;;;;;;;0.75;0.40;;;5.80;43.40;;;;;;6063576;23;20451;-80
2022/04/03 03:45:23;;;;;;;1.10;0.40;;;5.80;43.90;;;;;;6064298;23;20419;-81
2022/04/03 03:47:50;;;;;;;0.65;0.60;;;5.60;44.70;;;;;;6040502;23;20866;-79
2022/04/03 03:50:17;;;;;;;0.55;0.45;;;5.60;44.70;;;;;;6064207;23;20399;-79
2022/04/03 03:52:44;;;;;;;1.10;0.40;;;5.70;43.90;;;;;;6041140;23;20430;-77
2022/04/03 03:55:11;;;;;;;0.40;0.40;;;5.60;44.40;;;;;;6040402;23;20435;-79
2022/04/03 03:57:38;;;;;;;0.50;0.40;;;5.60;44.70;;;;;;6041642;23;20447;-81
2022/04/03 04:00:09;;;;;;;0.65;0.45;;;5.60;44.40;;;;;;6040925;23;20379;-77
2022/04/03 04:02:37;;;;;;;0.40;0.40;;;5.60;44.80;;;;;;6064985;23;20454;-81
2022/04/03 04:05:05;;;;;;;0.45;0.40;;;5.60;44.70;;;;;;6063888;23;20408;-77
2022/04/03 04:07:39;;;;;;;0.50;0.40;;;5.50;44.80;;;;;;6065264;23;20482;-76
2022/04/03 04:10:07;;;;;;;0.63;0.40;;;5.50;45.20;;;;;;6065787;23;20459;-77
2022/04/03 04:12:35;;;;;;;0.63;0.40;;;5.40;45.00;;;;;;6066037;23;20391;-79
2022/04/03 04:15:03;;;;;;;0.55;0.43;;;5.40;45.10;;;;;;6063033;23;20410;-77
2022/04/03 04:17:39;;;;;;;0.65;0.50;;;5.50;45.00;;;;;;6063639;23;20383;-79
2022/04/03 04:20:07;;;;;;;0.90;0.43;;;5.40;45.00;;;;;;6062632;23;20383;-77
2022/04/03 04:22:34;;;;;;;0.93;0.50;;;5.50;44.80;;;;;;6064114;23;20390;-81
2022/04/03 04:25:01;;;;;;;0.40;0.40;;;5.50;44.60;;;;;;6039649;23;20391;-80
2022/04/03 04:27:28;;;;;;;0.70;0.50;;;5.50;44.20;;;;;;6041448;23;20878;-77
2022/04/03 04:29:55;;;;;;;0.50;0.40;;;5.50;44.60;;;;;;6041843;23;20454;-77
2022/04/03 04:32:24;;;;;;;0.57;0.40;;;5.60;43.70;;;;;;6063865;23;20430;-77
2022/04/03 04:34:51;;;;;;;0.75;0.50;;;5.60;43.90;;;;;;6040782;23;20387;-77
2022/04/03 04:37:18;;;;;;;0.50;0.38;;;5.60;44.50;;;;;;6063787;23;20380;-78
2022/04/03 04:39:46;;;;;;;0.40;0.40;;;5.60;44.50;;;;;;6040426;23;20387;-77
2022/04/03 04:42:13;;;;;;;0.30;0.30;;;5.60;44.40;;;;;;6064011;23;20383;-77
2022/04/03 04:44:41;;;;;;;0.40;0.40;;;5.60;44.50;;;;;;6039921;23;20383;-78
2022/04/03 04:47:08;;;;;;;0.50;0.40;;;5.70;43.90;;;;;;6063695;23;20862;-79
2022/04/03 04:49:36;;;;;;;0.50;0.40;;;5.60;43.80;;;;;;6039376;23;20864;-77
2022/04/03 04:52:03;;;;;;;1.00;0.60;;;5.60;43.90;;;;;;6064411;23;20477;-80
2022/04/03 04:54:30;;;;;;;0.50;0.30;;;5.60;45.30;;;;;;6041617;23;20383;-77
2022/04/03 04:56:58;;;;;;;0.47;0.40;;;5.50;44.60;;;;;;6066070;23;20387;-77
2022/04/03 04:59:31;;;;;;;0.52;0.40;;;5.50;44.20;;;;;;6041672;23;20409;-79
2022/04/03 05:01:59;;;;;;;1.08;0.40;;;5.50;44.50;;;;;;6042584;23;20709;-80
2022/04/03 05:04:26;;;;;;;0.73;0.50;;;5.40;44.70;;;;;;6040557;23;20868;-78
2022/04/03 05:06:53;;;;;;;0.50;0.50;;;5.40;44.30;;;;;;6039184;23;20693;-81
2022/04/03 05:09:20;;;;;;;0.50;0.50;;;5.40;44.30;;;;;;6041056;23;20395;-81
2022/04/03 05:11:48;;;;;;;0.70;0.50;;;5.40;44.40;;;;;;6039125;23;20379;-77
2022/04/03 05:14:15;;;;;;;0.43;0.40;;;5.40;45.00;;;;;;6063687;23;20391;-81
2022/04/03 05:16:43;;;;;;;0.70;0.40;;;5.40;45.30;;;;;;6039814;23;20379;-81
2022/04/03 05:19:13;;;;;;;0.88;0.50;;;5.40;44.90;;;;;;6038396;23;20390;-81
2022/04/03 05:21:41;;;;;;;0.70;0.50;;;5.40;45.10;;;;;;6039506;23;20387;-78
2022/04/03 05:24:08;;;;;;;0.50;0.50;;;5.30;45.30;;;;;;6063940;23;20411;-77
2022/04/03 05:26:35;;;;;;;0.55;0.55;;;5.30;45.30;;;;;;6063439;23;20389;-78
2022/04/03 05:29:08;;;;;;;0.50;0.50;;;5.40;45.20;;;;;;6066721;23;20391;-82
2022/04/03 05:31:36;;;;;;;0.40;0.40;;;5.40;44.80;;;;;;6065057;23;21220;-81
2022/04/03 05:34:03;;;;;;;1.40;0.50;;;5.30;45.30;;;;;;6041270;23;20458;-81
2022/04/03 05:36:30;;;;;;;0.55;0.40;;;5.50;44.40;;;;;;6040415;23;20394;-81
2022/04/03 05:38:57;;;;;;;0.70;0.60;;;5.50;44.60;;;;;;6065004;23;20402;-77
2022/04/03 05:41:24;;;;;;;1.05;0.60;;;5.50;44.40;;;;;;6041899;23;20938;-79
2022/04/03 05:43:53;;;;;;;1.08;0.50;;;5.50;44.30;;;;;;6044667;23;20379;-80
2022/04/03 05:46:20;;;;;;;1.75;0.50;;;5.50;45.10;;;;;;6041597;23;20415;-78
2022/04/03 05:48:47;;;;;;;0.57;0.50;;;5.60;44.40;;;;;;6067236;23;20379;-80
2022/04/03 05:51:14;;;;;;;1.30;0.60;;;5.60;44.40;;;;;;6042043;23;20442;-80
2022/04/03 05:53:41;;;;;;;0.50;0.50;;;5.60;43.30;;;;;;6044749;23;20382;-78
2022/04/03 05:56:09;;;;;;;0.55;0.55;;;5.60;44.00;;;;;;6043243;23;20860;-78
2022/04/03 05:58:36;;;;;;;0.67;0.50;;;5.70;44.50;;;;;;6040359;23;20386;-78
2022/04/03 06:01:03;;;;;;;0.55;0.45;;;5.70;44.10;;;;;;6064901;23;20466;-80
2022/04/03 06:03:30;;;;;;;0.70;0.50;;;5.70;43.90;;;;;;6041362;23;20438;-80
2022/04/03 06:05:57;;;;;;;1.00;0.50;;;5.80;43.40;;;;;;6040831;23;20923;-79
2022/04/03 06:08:24;;;;;;;0.73;0.60;;;5.80;44.50;;;;;;6042153;23;20379;-78
2022/04/03 06:10:51;;;;;;;2.67;0.50;;;5.80;44.10;;;;;;6042908;23;20749;-80
2022/04/03 06:13:18;;;;;;;1.00;0.57;;;5.80;43.60;;;;;;6042269;23;20764;-79
2022/04/03 06:15:47;;;;;;;0.90;0.50;;;5.80;44.00;;;;;;6042767;23;20402;-80
2022/04/03 06:18:18;;;;;;;0.95;0.50;;;5.80;44.00;;;;;;6041289;23;20737;-78
2022/04/03 06:20:47;;;;;;;0.90;0.57;;;6.00;43.40;;;;;;6041860;23;20383;-80
2022/04/03 06:23:17;;;;;;;1.20;0.83;;;5.90;43.70;;;;;;6064805;23;20390;-80
2022/04/03 06:25:46;;;;;;;1.10;0.70;;;5.80;44.40;;;;;;6064162;23;20391;-78
2022/04/03 06:28:12;;;;;;;0.70;0.60;;;5.90;44.10;;;;;;6065641;23;20455;-78
2022/04/03 06:30:40;;;;;;;0.70;0.50;;;5.90;42.70;;;;;;6063353;23;20371;-80
2022/04/03 06:33:07;;;;;;;1.27;0.60;;;5.90;43.70;;;;;;6066540;23;20379;-80
2022/04/03 06:35:34;;;;;;;1.02;0.70;;;5.90;43.80;;;;;;6065062;23;20768;-78
2022/04/03 06:38:01;;;;;;;0.70;0.70;;;6.00;43.50;;;;;;6065758;23;20381;-80
2022/04/03 06:40:28;;;;;;;1.10;0.70;;;6.00;43.50;;;;;;6065936;23;20379;-78
2022/04/03 06:42:55;;;;;;;1.98;1.10;;;6.00;43.60;;;;;;6065927;23;20375;-78
2022/04/03 06:45:24;;;;;;;2.22;0.95;;;6.00;43.60;;;;;;6065296;23;20379;-78
2022/04/03 06:47:51;;;;;;;1.23;0.90;;;6.10;43.40;;;;;;6066017;23;20391;-78
2022/04/03 06:50:19;;;;;;;1.10;0.60;;;6.10;43.70;;;;;;6065356;23;20756;-80
2022/04/03 06:52:47;;;;;;;1.40;0.80;;;6.10;43.50;;;;;;6064978;23;20375;-81
2022/04/03 06:55:14;;;;;;;1.80;0.68;;;6.30;42.90;;;;;;6064565;23;20383;-80
2022/04/03 06:57:41;;;;;;;1.15;0.98;;;6.30;42.90;;;;;;6064665;23;20394;-80
2022/04/03 07:00:09;;;;;;;1.23;0.90;;;6.40;42.90;;;;;;6064212;23;20387;-80
2022/04/03 07:02:36;;;;;;;1.63;0.90;;;6.20;43.40;;;;;;6064846;23;20447;-80
2022/04/03 07:05:04;;;;;;;1.15;0.70;;;6.30;43.30;;;;;;6065789;23;20848;-77
2022/04/03 07:07:32;;;;;;;1.20;0.80;;;6.40;42.40;;;;;;6064170;23;20406;-78
2022/04/03 07:09:59;;;;;;;1.13;0.90;;;6.50;43.20;;;;;;6066290;23;20844;-80
2022/04/03 07:12:26;;;;;;;1.27;0.80;;;6.50;43.10;;;;;;6064393;23;20874;-76
2022/04/03 07:14:53;;;;;;;1.80;0.82;;;6.70;41.80;;;;;;6065509;23;20773;-80
2022/04/03 07:17:22;;;;;;;1.10;0.90;;;6.80;42.30;;;;;;6063585;23;20648;-78
2022/04/03 07:19:49;;;;;;;2.60;1.70;;;6.70;42.00;;;;;;6063805;23;20458;-78
2022/04/03 07:22:16;;;;;;;2.70;1.50;;;6.70;42.70;;;;;;6064612;23;20383;-80
2022/04/03 07:24:43;;;;;;;2.40;1.90;;;6.70;42.90;;;;;;6063710;23;20394;-81
2022/04/03 07:27:10;;;;;;;2.83;2.05;;;6.90;42.00;;;;;;6065206;23;20443;-78
2022/04/03 07:29:37;;;;;;;2.70;1.80;;;7.10;40.90;;;;;;6064661;23;20390;-79
2022/04/03 07:32:05;;;;;;;2.33;1.45;;;7.10;42.20;;;;;;6065524;23;20446;-81
2022/04/03 07:34:32;;;;;;;1.77;1.10;;;7.20;42.10;;;;;;6064189;23;20864;-78
2022/04/03 07:36:59;;;;;;;1.80;1.20;;;7.40;40.60;;;;;;6065581;23;20390;-79
2022/04/03 07:39:26;;;;;;;2.38;1.30;;;7.50;40.50;;;;;;6063459;23;20383;-81
2022/04/03 07:41:53;;;;;;;3.40;1.20;;;7.60;39.60;;;;;;6065636;23;20382;-78
2022/04/03 07:44:20;;;;;;;2.67;1.53;;;7.60;40.10;;;;;;6066197;23;20411;-80
2022/04/03 07:46:47;;;;;;;1.88;1.38;;;7.50;42.60;;;;;;6063763;23;20391;-78
2022/04/03 07:49:14;;;;;;;1.35;1.20;;;7.70;41.20;;;;;;6063605;23;20856;-79
2022/04/03 07:51:42;;;;;;;2.08;1.30;;;7.80;40.30;;;;;;6062800;23;20697;-78
2022/04/03 07:54:09;;;;;;;2.17;1.40;;;8.00;40.10;;;;;;6065794;23;20411;-78
2022/04/03 07:56:37;;;;;;;2.78;1.40;;;8.10;39.50;;;;;;6066523;23;20390;-80
2022/04/03 07:59:06;;;;;;;2.13;1.30;;;8.10;40.60;;;;;;6067135;23;20891;-81
2022/04/03 08:01:36;;;;;;;1.88;1.10;;;8.10;40.60;;;;;;6063251;23;20393;-78
2022/04/03 08:04:03;;;;;;;1.40;1.00;;;8.30;39.00;;;;;;6065212;23;20433;-81
2022/04/03 08:06:30;;;;;;;1.77;1.00;;;8.30;38.80;;;;;;6039544;23;20383;-80
2022/04/03 08:08:57;;;;;;;1.50;1.20;;;8.40;39.00;;;;;;6064292;23;20708;-81
2022/04/03 08:11:24;;;;;;;2.23;1.40;;;8.40;38.20;;;;;;6064203;23;20405;-78
2022/04/03 08:13:52;;;;;;;2.22;1.50;;;8.50;39.80;;;;;;6064987;23;20917;-80
2022/04/03 08:16:19;;;;;;;3.05;1.73;;;8.50;39.30;;;;;;6064909;23;20379;-81
2022/04/03 08:18:46;;;;;;;6.68;2.40;;;8.80;38.10;;;;;;6064048;23;20427;-81
2022/04/03 08:21:18;;;;;;;3.53;1.65;;;9.00;37.80;;;;;;6064804;23;20379;-79
2022/04/03 08:23:45;;;;;;;2.72;2.10;;;9.00;40.00;;;;;;6064034;23;20691;-79
2022/04/03 08:26:13;;;;;;;2.17;1.40;;;9.00;39.60;;;;;;6042014;23;20379;-78
2022/04/03 08:28:40;;;;;;;2.15;1.40;;;9.20;38.40;;;;;;6064640;23;20395;-79
2022/04/03 08:31:06;;;;;;;2.00;1.65;;;9.30;38.20;;;;;;6041836;23;20421;-79
2022/04/03 08:33:34;;;;;;;1.90;1.40;;;9.30;38.50;;;;;;6063448;23;20394;-81
2022/04/03 08:36:03;;;;;;;1.75;1.08;;;9.40;37.40;;;;;;6040582;23;20757;-79
2022/04/03 08:38:30;;;;;;;2.08;1.20;;;9.30;38.30;;;;;;6040123;23;20406;-79
2022/04/03 08:40:59;;;;;;;1.52;1.10;;;9.30;38.00;;;;;;6039945;23;20416;-81
2022/04/03 08:43:32;;;;;;;1.87;1.30;;;9.50;37.50;;;;;;6064961;23;20526;-78
2022/04/03 08:46:00;;;;;;;2.08;1.40;;;9.50;38.70;;;;;;6041018;23;20383;-79
2022/04/03 08:48:32;;;;;;;1.95;1.08;;;9.50;37.50;;;;;;6063669;23;20855;-79
2022/04/03 08:51:04;;;;;;;2.50;1.53;;;9.50;37.50;;;;;;6065552;23;20378;-78
2022/04/03 08:53:32;;;;;;;2.58;1.48;;;9.70;37.40;;;;;;6064059;23;20399;-80
2022/04/03 08:55:59;;;;;;;2.05;1.45;;;9.80;36.30;;;;;;6064409;23;20770;-79
2022/04/03 08:58:27;;;;;;;2.25;1.13;;;9.90;36.80;;;;;;6038702;23;20878;-79
2022/04/03 09:00:56;;;;;;;1.70;1.10;;;9.90;38.20;;;;;;6040270;23;20708;-82
2022/04/03 09:03:23;;;;;;;3.63;1.50;;;10.10;36.30;;;;;;6064427;23;20427;-82
2022/04/03 09:05:50;;;;;;;2.23;1.70;;;10.20;37.00;;;;;;6042230;23;20753;-79
2022/04/03 09:08:35;;;;;;;2.08;1.40;;;10.30;36.30;;;;;;6043299;23;20411;-79
2022/04/03 09:11:04;;;;;;;2.22;1.20;;;10.40;35.70;;;;;;6066492;23;20398;-79
2022/04/03 09:13:31;;;;;;;1.40;0.90;;;10.50;35.30;;;;;;6066763;23;20390;-79
2022/04/03 09:15:58;;;;;;;1.38;1.00;;;10.40;35.80;;;;;;6042073;23;20442;-81
2022/04/03 09:18:42;;;;;;;3.55;2.10;;;10.40;36.60;;;;;;6043843;23;20383;-79
2022/04/03 09:21:16;;;;;;;2.03;1.58;;;10.40;34.30;;;;;;6064468;23;20847;-78
2022/04/03 09:24:02;;;;;;;3.63;2.17;;;10.40;34.50;;;;;;6041085;23;20379;-81
2022/04/03 09:26:31;;;;;;;1.00;0.70;;;10.50;34.80;;;;;;6065585;23;20832;-78
2022/04/03 09:29:17;;;;;;;0.80;0.60;;;10.20;32.00;;;;;;6064369;23;20391;-80
2022/04/03 09:31:46;;;;;;;1.73;0.80;;;10.20;32.70;;;;;;6063745;23;20394;-81
2022/04/03 09:34:18;;;;;;;1.27;0.73;;;10.30;32.30;;;;;;6065768;23;20383;-79
2022/04/03 09:37:05;;;;;;;1.80;0.80;;;10.40;32.70;;;;;;6062291;23;20403;-81
2022/04/03 09:39:32;;;;;;;1.00;0.70;;;10.20;32.60;;;;;;6062974;23;20390;-79
2022/04/03 09:42:06;;;;;;;1.00;0.60;;;10.30;33.50;;;;;;6063257;23;20382;-81
2022/04/03 09:44:38;;;;;;;1.05;0.70;;;10.40;33.80;;;;;;6039478;23;20383;-79
2022/04/03 09:47:21;;;;;;;0.90;0.70;;;10.40;34.40;;;;;;6064168;23;20705;-81
2022/04/03 09:49:54;;;;;;;1.02;0.70;;;10.50;33.50;;;;;;6063785;23;20367;-78
2022/04/03 09:52:45;;;;;;;1.00;0.60;;;10.70;33.90;;;;;;6065404;23;20383;-81
2022/04/03 09:55:17;;;;;;;1.30;0.80;;;10.70;33.70;;;;;;6063269;23;20812;-79
2022/04/03 09:57:46;;;;;;;1.45;0.75;;;10.60;32.80;;;;;;6063849;23;20788;-80
2022/04/03 10:00:41;;;;;;;1.30;0.80;;;10.60;34.60;;;;;;6064264;23;20387;-79
2022/04/03 10:03:13;;;;;;;0.95;0.75;;;10.70;34.00;;;;;;6064515;23;20914;-80
2022/04/03 10:05:41;;;;;;;0.90;0.60;;;10.80;33.50;;;;;;6063920;23;20482;-78
2022/04/03 10:08:08;;;;;;;1.00;0.60;;;10.80;34.30;;;;;;6064915;23;20402;-78
2022/04/03 10:10:36;;;;;;;1.00;0.70;;;10.90;34.50;;;;;;6063090;23;20383;-79
2022/04/03 10:13:06;;;;;;;0.80;0.60;;;11.00;34.60;;;;;;6063706;23;20379;-79
2022/04/03 10:15:34;;;;;;;1.27;0.60;;;10.80;32.30;;;;;;6063078;23;20444;-79
2022/04/03 10:18:02;;;;;;;0.90;0.60;;;11.00;33.60;;;;;;6063636;23;20779;-80
2022/04/03 10:20:29;;;;;;;0.90;0.50;;;11.10;33.40;;;;;;6062817;23;20402;-79
2022/04/03 10:23:00;;;;;;;1.00;0.80;;;11.40;31.80;;;;;;6063961;23;20895;-78
2022/04/03 10:25:37;;;;;;;0.90;0.80;;;11.60;33.40;;;;;;6062623;23;20383;-80
2022/04/03 10:28:06;;;;;;;1.30;0.90;;;11.90;32.40;;;;;;6064089;23;20395;-78
2022/04/03 10:30:43;;;;;;;1.10;0.80;;;12.00;32.10;;;;;;6062806;23;20406;-79
2022/04/03 10:33:23;;;;;;;1.17;0.80;;;11.90;32.60;;;;;;6065196;23;20441;-79
2022/04/03 10:36:05;;;;;;;1.25;0.70;;;11.90;32.40;;;;;;6063298;23;20367;-80
2022/04/03 10:38:55;;;;;;;1.10;1.00;;;12.20;33.70;;;;;;6063473;23;20914;-79
2022/04/03 10:41:36;;;;;;;1.58;1.00;;;12.00;31.90;;;;;;6063475;23;20871;-79
2022/04/03 10:44:22;;;;;;;2.80;1.90;;;12.00;32.00;;;;;;6063094;23;20374;-79
2022/04/03 10:47:04;;;;;;;2.47;1.63;;;12.20;34.30;;;;;;6062376;23;20466;-79
2022/04/03 10:50:00;;;;;;;1.50;0.90;;;12.40;32.10;;;;;;6040136;23;20383;-78
2022/04/03 10:52:40;;;;;;;5.32;3.75;;;12.70;32.10;;;;;;6062138;23;21037;-79
2022/04/03 10:55:27;;;;;;;29.98;20.63;;;12.80;32.00;;;;;;6038531;23;20386;-79
2022/04/03 10:58:02;;;;;;;3.78;3.30;;;12.30;30.70;;;;;;6033700;23;20954;-81
2022/04/03 11:00:30;;;;;;;1.83;1.30;;;12.30;32.10;;;;;;6062892;23;20820;-81
2022/04/03 11:02:57;;;;;;;1.73;1.48;;;12.50;32.40;;;;;;6063918;23;20387;-79
2022/04/03 11:05:27;;;;;;;2.05;1.55;;;12.80;33.20;;;;;;6038639;23;20379;-79
2022/04/03 11:08:00;;;;;;;1.15;1.02;;;13.00;32.20;;;;;;6039946;23;20416;-78
2022/04/03 11:10:54;;;;;;;1.75;1.38;;;12.80;31.70;;;;;;6039082;23;20884;-79
2022/04/03 11:13:30;;;;;;;0.95;0.75;;;13.00;33.50;;;;;;6039244;23;20923;-79
2022/04/03 11:16:11;;;;;;;1.00;0.90;;;12.80;31.30;;;;;;6040335;23;20399;-79
2022/04/03 11:18:49;;;;;;;0.80;0.80;;;12.40;32.80;;;;;;6063617;23;20439;-78
2022/04/03 11:21:23;;;;;;;1.30;0.82;;;12.60;32.60;;;;;;6039393;23;20383;-79
2022/04/03 11:24:06;;;;;;;1.58;1.15;;;12.40;30.30;;;;;;6040507;23;20383;-78
2022/04/03 11:26:34;;;;;;;1.15;0.77;;;12.50;32.70;;;;;;6062971;23;22416;-80
2022/04/03 11:29:04;;;;;;;0.70;0.60;;;13.10;32.70;;;;;;6039673;23;20383;-79
2022/04/03 11:31:32;;;;;;;1.70;0.70;;;13.60;31.20;;;;;;6063105;23;20395;-78
2022/04/03 11:34:00;;;;;;;0.85;0.80;;;13.50;30.10;;;;;;6063018;23;20391;-79
2022/04/03 11:36:32;;;;;;;1.10;0.80;;;13.10;29.50;;;;;;6062496;23;20383;-81
2022/04/03 11:39:00;;;;;;;0.80;0.70;;;13.20;32.10;;;;;;6062840;23;20453;-79
2022/04/03 11:41:36;;;;;;;1.15;0.80;;;12.80;30.00;;;;;;6038909;23;20760;-81
2022/04/03 11:44:15;;;;;;;1.13;0.93;;;13.10;31.60;;;;;;6061777;23;20418;-81
2022/04/03 11:46:45;;;;;;;1.10;0.83;;;13.10;30.50;;;;;;6062524;23;20379;-79
2022/04/03 11:49:17;;;;;;;0.83;0.80;;;13.10;29.80;;;;;;6062940;23;20387;-81
2022/04/03 11:51:47;;;;;;;1.67;0.80;;;12.90;32.40;;;;;;6063592;23;21021;-79
2022/04/03 11:54:15;;;;;;;0.80;0.80;;;13.20;32.50;;;;;;6062420;23;20387;-80
2022/04/03 11:56:42;;;;;;;1.70;0.95;;;13.90;34.50;;;;;;6061759;23;20466;-82
2022/04/03 11:59:13;;;;;;;1.30;1.20;;;14.10;34.10;;;;;;6062551;23;20383;-79
2022/04/03 12:01:53;;;;;;;1.20;1.10;;;14.60;32.70;;;;;;6060662;23;20737;-79
2022/04/03 12:04:22;;;;;;;1.10;1.00;;;15.20;32.30;;;;;;6017523;23;20387;-79
2022/04/03 12:06:57;;;;;;;1.20;1.10;;;14.80;29.40;;;;;;6062411;23;20378;-80
2022/04/03 12:09:24;;;;;;;1.00;0.80;;;14.50;30.80;;;;;;6062798;23;20391;-81
2022/04/03 12:11:53;;;;;;;1.05;0.95;;;15.00;29.90;;;;;;6063540;23;20438;-79
2022/04/03 12:14:25;;;;;;;1.73;0.85;;;15.00;28.50;;;;;;6063154;23;20387;-80
2022/04/03 12:17:03;;;;;;;2.28;1.35;;;14.80;29.10;;;;;;6061993;23;20371;-80
2022/04/03 12:19:51;;;;;;;1.90;1.50;;;14.30;30.60;;;;;;6062318;23;20383;-79
2022/04/03 12:22:19;;;;;;;1.38;1.27;;;13.70;29.70;;;;;;6064811;23;20391;-79
2022/04/03 12:24:52;;;;;;;1.20;1.10;;;13.60;31.90;;;;;;6061761;23;20858;-78
2022/04/03 12:27:22;;;;;;;1.27;0.88;;;13.80;30.70;;;;;;6062912;23;20760;-79
2022/04/03 12:29:52;;;;;;;1.35;0.80;;;13.70;29.90;;;;;;6062893;23;20385;-79
2022/04/03 12:32:32;;;;;;;0.98;0.88;;;13.80;31.70;;;;;;6063021;23;20382;-80
2022/04/03 12:34:59;;;;;;;1.45;1.08;;;13.90;31.20;;;;;;6062095;23;20374;-79
2022/04/03 12:37:27;;;;;;;1.10;1.00;;;13.50;31.30;;;;;;6062629;23;20390;-79
2022/04/03 12:39:54;;;;;;;1.20;1.10;;;13.70;32.00;;;;;;6038158;23;21140;-82
2022/04/03 12:42:38;;;;;;;1.60;0.90;;;13.90;31.50;;;;;;6039444;23;20379;-81
2022/04/03 12:45:23;;;;;;;1.08;0.90;;;14.20;31.70;;;;;;6063689;23;20826;-79
2022/04/03 12:47:57;;;;;;;0.90;0.90;;;14.30;31.40;;;;;;6038972;23;20394;-80
2022/04/03 12:50:32;;;;;;;1.52;0.95;;;14.00;30.70;;;;;;6040106;23;20383;-79
2022/04/03 12:53:01;;;;;;;1.20;0.90;;;14.20;31.20;;;;;;6062008;23;20442;-83
2022/04/03 12:55:41;;;;;;;1.10;0.93;;;14.30;29.90;;;;;;6063553;23;20926;-83
2022/04/03 12:58:24;;;;;;;1.80;1.50;;;14.10;30.20;;;;;;6062503;23;20367;-82
2022/04/03 13:00:56;;;;;;;2.35;1.20;;;13.60;31.60;;;;;;6063444;23;20454;-81
2022/04/03 13:03:33;;;;;;;1.65;1.52;;;13.50;32.40;;;;;;6039598;23;20375;-82
2022/04/03 13:06:14;;;;;;;3.30;2.72;;;13.50;33.90;;;;;;6038617;23;20434;-80